Warning: Javascript must be enabled to use all the features on this page!


Page Loading - Please Wait...

Click to hideNews Bulletins

Peak Streamflow for the Nation

USGS 02216180 TURNPIKE CREEK NEAR MCRAE, GA

Telfair County, Georgia
Hydrologic Unit Code 03070105
Latitude  31°59'29", Longitude  82°55'19" NAD83
Drainage area 49.2  square miles
Contributing drainage area 49.2  square miles
Gage datum 172.4 feet above NAVD88
Output formats
Table
Graph
Tab-separated file
peakfq (watstore) format
Reselect output format
Water
Year
Date Gage
Height
(feet)
Stream-
flow
(cfs)
1983 1983-03-07 10.51 2,170
1984 1984-05-04 9.92 1,640
1985 1985-08-31 7.11 294
1986 1985-11-22 10.56 2,220
1987 1987-03-01 9.20 1,260
1988 1988-04-19 8.68 836
1989 1989-07-31 7.38 359
1990 1990-01-08 9.64 1,420
1991 1991-03-03 10.24 2,020
1992 1992-02-18 8.52 760
1993 1993-01-12 11.04 2,740
1994 1994-08-17 9.66 1,750
1995 1995-02-12 9.77 1,860
1996 1996-03-08 8.01 640
1997 1997-02-15 8.74 1,030
1998 1998-03-09 11.82 4,980
1999 1999-01-25 6.06 128
2000 2000-03-31 7.46 434
2001 2001-03-04 7.70 514
2002 2002-04-12 5.12 72.0
2003 2003-03-21 8.03 649
2004 2004-09-28 9.06 1,250
2005 2005-03-28 10.37 1,970
2006 2006-02-26 8.38 607
2007 2007-02-02 7.27 306
2008 2008-02-23 8.25 572
2009 2009-04-03 10.69 2,400
2010 2009-12-15 9.66 1,440
2011 2011-03-31 6.68 193
2012 2012-03-17 6.46 166
2013 2013-07-02 10.07 1,700
2014 2014-02-13 8.96 768
2015 2014-12-24 8.47 420
2016 2016-02-04 8.62 526
2017 2017-01-22 8.53 441
2018 2018-06-15 8.78 374
2019 2018-12-03 9.45 958
2020 2020-03-05 10.77 2,560
2021 2021-02-16 9.17 926
2022 2022-01-17 7.122 200
?
  Peak Gage-Height Qualification Codes.